sensor_id;sensor_type;location;lat;lon;timestamp;pressure;altitude;pressure_sealevel;temperature;humidity
43701;BME280;58809;47.984;7.964;2023-08-24T00:02:44;97373.75;;;17.93;100.00
43701;BME280;58809;47.984;7.964;2023-08-24T00:05:47;97365.97;;;17.91;100.00
43701;BME280;58809;47.984;7.964;2023-08-24T00:08:49;97365.16;;;17.91;100.00
43701;BME280;58809;47.984;7.964;2023-08-24T00:11:51;97362.31;;;17.85;100.00
43701;BME280;58809;47.984;7.964;2023-08-24T00:14:53;97357.63;;;17.81;100.00
43701;BME280;58809;47.984;7.964;2023-08-24T00:17:54;97355.16;;;17.79;100.00
43701;BME280;58809;47.984;7.964;2023-08-24T00:20:56;97351.31;;;17.75;100.00
43701;BME280;58809;47.984;7.964;2023-08-24T00:23:58;97351.75;;;17.72;100.00
43701;BME280;58809;47.984;7.964;2023-08-24T00:27:01;97355.44;;;17.71;100.00
43701;BME280;58809;47.984;7.964;2023-08-24T00:30:03;97358.00;;;17.66;100.00
43701;BME280;58809;47.984;7.964;2023-08-24T00:33:05;97349.00;;;17.60;100.00
43701;BME280;58809;47.984;7.964;2023-08-24T00:36:07;97347.34;;;17.59;100.00
43701;BME280;58809;47.984;7.964;2023-08-24T00:39:09;97342.81;;;17.60;100.00
43701;BME280;58809;47.984;7.964;2023-08-24T00:42:12;97344.31;;;17.56;100.00
43701;BME280;58809;47.984;7.964;2023-08-24T00:45:17;97331.34;;;17.52;100.00
43701;BME280;58809;47.984;7.964;2023-08-24T00:48:19;97320.91;;;17.51;100.00
43701;BME280;58809;47.984;7.964;2023-08-24T00:51:22;97316.00;;;17.48;100.00
43701;BME280;58809;47.984;7.964;2023-08-24T00:54:25;97314.13;;;17.48;100.00
43701;BME280;58809;47.984;7.964;2023-08-24T00:57:27;97312.94;;;17.44;100.00
43701;BME280;58809;47.984;7.964;2023-08-24T01:00:29;97310.09;;;17.39;100.00
43701;BME280;58809;47.984;7.964;2023-08-24T01:03:31;97311.16;;;17.38;100.00
43701;BME280;58809;47.984;7.964;2023-08-24T01:06:33;97307.88;;;17.36;100.00
43701;BME280;58809;47.984;7.964;2023-08-24T01:09:35;97300.69;;;17.37;100.00
43701;BME280;58809;47.984;7.964;2023-08-24T01:16:00;97306.41;;;17.40;100.00
43701;BME280;58809;47.984;7.964;2023-08-24T01:19:04;97305.34;;;17.41;100.00
43701;BME280;58809;47.984;7.964;2023-08-24T01:28:54;97274.69;;;17.44;100.00
43701;BME280;58809;47.984;7.964;2023-08-24T01:31:58;97270.88;;;17.51;100.00
43701;BME280;58809;47.984;7.964;2023-08-24T01:35:05;97262.75;;;17.58;100.00
43701;BME280;58809;47.984;7.964;2023-08-24T01:38:07;97266.16;;;17.65;100.00
43701;BME280;58809;47.984;7.964;2023-08-24T01:41:12;97267.50;;;17.75;100.00
43701;BME280;58809;47.984;7.964;2023-08-24T01:44:20;97262.50;;;17.78;100.00
43701;BME280;58809;47.984;7.964;2023-08-24T01:47:23;97260.91;;;17.77;100.00
43701;BME280;58809;47.984;7.964;2023-08-24T01:50:26;97264.16;;;17.79;100.00
43701;BME280;58809;47.984;7.964;2023-08-24T01:53:29;97271.75;;;17.82;100.00
43701;BME280;58809;47.984;7.964;2023-08-24T01:56:31;97263.09;;;17.80;100.00
43701;BME280;58809;47.984;7.964;2023-08-24T01:59:33;97264.53;;;17.83;100.00
43701;BME280;58809;47.984;7.964;2023-08-24T02:02:35;97253.22;;;17.81;100.00
43701;BME280;58809;47.984;7.964;2023-08-24T02:05:37;97247.41;;;17.84;100.00
43701;BME280;58809;47.984;7.964;2023-08-24T02:08:38;97252.50;;;17.92;100.00
43701;BME280;58809;47.984;7.964;2023-08-24T02:11:40;97250.75;;;17.98;100.00
43701;BME280;58809;47.984;7.964;2023-08-24T02:14:42;97250.31;;;18.01;100.00
43701;BME280;58809;47.984;7.964;2023-08-24T02:17:43;97251.03;;;18.08;100.00
43701;BME280;58809;47.984;7.964;2023-08-24T02:20:46;97253.25;;;18.11;100.00
43701;BME280;58809;47.984;7.964;2023-08-24T02:23:47;97253.94;;;18.06;100.00
43701;BME280;58809;47.984;7.964;2023-08-24T02:26:49;97257.06;;;18.03;100.00
43701;BME280;58809;47.984;7.964;2023-08-24T02:29:50;97258.34;;;18.01;100.00
43701;BME280;58809;47.984;7.964;2023-08-24T02:32:52;97255.69;;;18.01;100.00
43701;BME280;58809;47.984;7.964;2023-08-24T02:35:54;97257.06;;;18.03;100.00
43701;BME280;58809;47.984;7.964;2023-08-24T02:38:55;97252.66;;;18.09;100.00
43701;BME280;58809;47.984;7.964;2023-08-24T02:41:57;97257.13;;;18.15;100.00
43701;BME280;58809;47.984;7.964;2023-08-24T02:44:58;97254.34;;;18.22;100.00
43701;BME280;58809;47.984;7.964;2023-08-24T02:48:00;97253.88;;;18.25;100.00
43701;BME280;58809;47.984;7.964;2023-08-24T02:51:04;97248.88;;;18.28;100.00
43701;BME280;58809;47.984;7.964;2023-08-24T02:54:06;97246.22;;;18.28;100.00
43701;BME280;58809;47.984;7.964;2023-08-24T02:57:07;97254.81;;;18.31;100.00
43701;BME280;58809;47.984;7.964;2023-08-24T03:00:09;97243.53;;;18.28;100.00
43701;BME280;58809;47.984;7.964;2023-08-24T03:03:11;97242.09;;;18.26;100.00
43701;BME280;58809;47.984;7.964;2023-08-24T03:06:12;97235.22;;;18.18;100.00
43701;BME280;58809;47.984;7.964;2023-08-24T03:09:14;97234.63;;;18.16;100.00
43701;BME280;58809;47.984;7.964;2023-08-24T03:12:15;97225.44;;;18.12;100.00
43701;BME280;58809;47.984;7.964;2023-08-24T03:15:17;97219.59;;;18.03;100.00
43701;BME280;58809;47.984;7.964;2023-08-24T03:18:19;97221.66;;;17.89;100.00
43701;BME280;58809;47.984;7.964;2023-08-24T03:21:21;97210.84;;;17.78;100.00
43701;BME280;58809;47.984;7.964;2023-08-24T03:24:22;97207.88;;;17.67;100.00
43701;BME280;58809;47.984;7.964;2023-08-24T03:27:24;97207.41;;;17.59;100.00
43701;BME280;58809;47.984;7.964;2023-08-24T03:30:26;97209.72;;;17.55;100.00
43701;BME280;58809;47.984;7.964;2023-08-24T03:33:27;97208.97;;;17.48;100.00
43701;BME280;58809;47.984;7.964;2023-08-24T03:36:29;97198.56;;;17.40;100.00
43701;BME280;58809;47.984;7.964;2023-08-24T03:39:32;97196.00;;;17.33;100.00
43701;BME280;58809;47.984;7.964;2023-08-24T03:42:34;97199.47;;;17.34;100.00
43701;BME280;58809;47.984;7.964;2023-08-24T03:45:36;97199.69;;;17.32;100.00
43701;BME280;58809;47.984;7.964;2023-08-24T03:48:38;97203.44;;;17.31;100.00
43701;BME280;58809;47.984;7.964;2023-08-24T03:51:40;97193.75;;;17.30;100.00
43701;BME280;58809;47.984;7.964;2023-08-24T03:54:41;97199.13;;;17.30;100.00
43701;BME280;58809;47.984;7.964;2023-08-24T03:57:43;97193.31;;;17.33;100.00
43701;BME280;58809;47.984;7.964;2023-08-24T04:00:45;97191.25;;;17.35;100.00
43701;BME280;58809;47.984;7.964;2023-08-24T04:03:47;97185.66;;;17.37;100.00
43701;BME280;58809;47.984;7.964;2023-08-24T04:06:48;97182.88;;;17.43;100.00
43701;BME280;58809;47.984;7.964;2023-08-24T04:09:51;97193.88;;;17.54;100.00
43701;BME280;58809;47.984;7.964;2023-08-24T04:12:52;97197.28;;;17.61;100.00
43701;BME280;58809;47.984;7.964;2023-08-24T04:15:54;97185.91;;;17.65;100.00
43701;BME280;58809;47.984;7.964;2023-08-24T04:18:56;97177.28;;;17.63;100.00
43701;BME280;58809;47.984;7.964;2023-08-24T04:21:57;97171.56;;;17.60;100.00
43701;BME280;58809;47.984;7.964;2023-08-24T04:24:59;97166.69;;;17.57;100.00
43701;BME280;58809;47.984;7.964;2023-08-24T04:28:01;97166.78;;;17.50;100.00
43701;BME280;58809;47.984;7.964;2023-08-24T04:31:03;97158.59;;;17.45;100.00
43701;BME280;58809;47.984;7.964;2023-08-24T04:34:04;97161.28;;;17.45;100.00
43701;BME280;58809;47.984;7.964;2023-08-24T04:37:06;97155.94;;;17.45;100.00
43701;BME280;58809;47.984;7.964;2023-08-24T04:40:08;97162.34;;;17.44;100.00
43701;BME280;58809;47.984;7.964;2023-08-24T04:43:10;97161.06;;;17.46;100.00
43701;BME280;58809;47.984;7.964;2023-08-24T04:46:12;97162.97;;;17.58;100.00
43701;BME280;58809;47.984;7.964;2023-08-24T04:49:14;97170.09;;;17.64;100.00
43701;BME280;58809;47.984;7.964;2023-08-24T04:52:15;97167.31;;;17.70;100.00
43701;BME280;58809;47.984;7.964;2023-08-24T04:55:17;97170.25;;;17.81;100.00
43701;BME280;58809;47.984;7.964;2023-08-24T04:58:18;97167.41;;;17.94;100.00
43701;BME280;58809;47.984;7.964;2023-08-24T05:01:20;97171.31;;;18.10;100.00
43701;BME280;58809;47.984;7.964;2023-08-24T05:04:22;97175.28;;;18.19;100.00
43701;BME280;58809;47.984;7.964;2023-08-24T05:07:23;97175.63;;;18.23;100.00
43701;BME280;58809;47.984;7.964;2023-08-24T05:10:25;97184.59;;;18.28;100.00
43701;BME280;58809;47.984;7.964;2023-08-24T05:13:27;97181.56;;;18.37;100.00
43701;BME280;58809;47.984;7.964;2023-08-24T05:16:28;97182.28;;;18.44;100.00
43701;BME280;58809;47.984;7.964;2023-08-24T05:19:30;97182.53;;;18.54;100.00
43701;BME280;58809;47.984;7.964;2023-08-24T05:22:31;97189.41;;;18.62;100.00
43701;BME280;58809;47.984;7.964;2023-08-24T05:25:33;97184.97;;;18.67;100.00
43701;BME280;58809;47.984;7.964;2023-08-24T05:28:35;97187.31;;;18.76;100.00
43701;BME280;58809;47.984;7.964;2023-08-24T05:31:37;97194.53;;;18.99;100.00
43701;BME280;58809;47.984;7.964;2023-08-24T05:34:38;97197.06;;;19.17;100.00
43701;BME280;58809;47.984;7.964;2023-08-24T05:37:40;97197.06;;;19.29;100.00
43701;BME280;58809;47.984;7.964;2023-08-24T05:40:42;97195.88;;;19.37;100.00
43701;BME280;58809;47.984;7.964;2023-08-24T05:43:44;97193.25;;;19.54;100.00
43701;BME280;58809;47.984;7.964;2023-08-24T05:46:46;97189.81;;;19.70;100.00
43701;BME280;58809;47.984;7.964;2023-08-24T05:49:47;97190.22;;;19.91;100.00
43701;BME280;58809;47.984;7.964;2023-08-24T05:52:49;97190.88;;;19.98;100.00
43701;BME280;58809;47.984;7.964;2023-08-24T05:55:51;97198.94;;;19.98;100.00
43701;BME280;58809;47.984;7.964;2023-08-24T05:58:54;97198.56;;;20.06;100.00
43701;BME280;58809;47.984;7.964;2023-08-24T06:01:56;97199.84;;;20.04;100.00
43701;BME280;58809;47.984;7.964;2023-08-24T06:04:57;97203.59;;;20.19;100.00
43701;BME280;58809;47.984;7.964;2023-08-24T06:07:59;97203.13;;;20.23;100.00
43701;BME280;58809;47.984;7.964;2023-08-24T06:11:00;97209.16;;;20.30;100.00
43701;BME280;58809;47.984;7.964;2023-08-24T06:14:02;97207.28;;;20.30;100.00
43701;BME280;58809;47.984;7.964;2023-08-24T06:17:04;97208.66;;;20.33;100.00
43701;BME280;58809;47.984;7.964;2023-08-24T06:20:07;97212.09;;;20.45;100.00
43701;BME280;58809;47.984;7.964;2023-08-24T06:23:12;97216.91;;;20.43;100.00
43701;BME280;58809;47.984;7.964;2023-08-24T06:26:14;97220.72;;;20.47;100.00
43701;BME280;58809;47.984;7.964;2023-08-24T06:29:16;97218.13;;;20.52;100.00
43701;BME280;58809;47.984;7.964;2023-08-24T06:32:18;97229.72;;;20.70;100.00
43701;BME280;58809;47.984;7.964;2023-08-24T06:35:19;97231.63;;;21.08;100.00
43701;BME280;58809;47.984;7.964;2023-08-24T06:38:21;97233.00;;;21.50;100.00
43701;BME280;58809;47.984;7.964;2023-08-24T06:41:22;97232.44;;;21.70;95.49
43701;BME280;58809;47.984;7.964;2023-08-24T06:44:25;97246.28;;;21.79;91.86
43701;BME280;58809;47.984;7.964;2023-08-24T06:47:26;97242.47;;;21.75;88.77
43701;BME280;58809;47.984;7.964;2023-08-24T06:50:28;97236.75;;;22.20;85.72
43701;BME280;58809;47.984;7.964;2023-08-24T06:53:29;97227.53;;;22.43;83.61
43701;BME280;58809;47.984;7.964;2023-08-24T06:56:31;97236.78;;;22.53;82.91
43701;BME280;58809;47.984;7.964;2023-08-24T06:59:32;97239.44;;;22.20;83.11
43701;BME280;58809;47.984;7.964;2023-08-24T07:02:35;97235.75;;;21.77;85.03
43701;BME280;58809;47.984;7.964;2023-08-24T07:05:37;97235.38;;;21.46;87.23
43701;BME280;58809;47.984;7.964;2023-08-24T07:08:39;97233.78;;;21.28;88.48
43701;BME280;58809;47.984;7.964;2023-08-24T07:11:41;97233.28;;;21.31;90.73
43701;BME280;58809;47.984;7.964;2023-08-24T07:14:42;97234.97;;;22.04;89.42
43701;BME280;58809;47.984;7.964;2023-08-24T07:17:44;97235.56;;;22.71;84.55
43701;BME280;58809;47.984;7.964;2023-08-24T07:20:45;97236.09;;;23.05;81.70
43701;BME280;58809;47.984;7.964;2023-08-24T07:23:47;97241.50;;;23.53;80.41
43701;BME280;58809;47.984;7.964;2023-08-24T07:26:48;97236.25;;;23.89;78.95
43701;BME280;58809;47.984;7.964;2023-08-24T07:29:50;97234.44;;;24.20;76.28
43701;BME280;58809;47.984;7.964;2023-08-24T07:32:52;97230.34;;;24.17;74.60
43701;BME280;58809;47.984;7.964;2023-08-24T07:35:53;97224.94;;;24.17;74.23
43701;BME280;58809;47.984;7.964;2023-08-24T07:38:56;97225.50;;;24.25;73.53
43701;BME280;58809;47.984;7.964;2023-08-24T07:41:57;97236.59;;;24.49;74.15
43701;BME280;58809;47.984;7.964;2023-08-24T07:44:59;97230.69;;;24.77;72.63
43701;BME280;58809;47.984;7.964;2023-08-24T07:48:00;97228.50;;;24.79;71.17
43701;BME280;58809;47.984;7.964;2023-08-24T07:51:02;97232.81;;;25.11;70.01
43701;BME280;58809;47.984;7.964;2023-08-24T07:54:04;97235.31;;;25.68;68.89
43701;BME280;58809;47.984;7.964;2023-08-24T07:57:08;97237.72;;;25.85;67.87
43701;BME280;58809;47.984;7.964;2023-08-24T08:00:10;97233.22;;;26.54;65.56
43701;BME280;58809;47.984;7.964;2023-08-24T08:03:17;97232.25;;;27.03;63.84
43701;BME280;58809;47.984;7.964;2023-08-24T08:06:19;97242.69;;;27.20;62.66
43701;BME280;58809;47.984;7.964;2023-08-24T08:09:23;97237.31;;;27.15;61.29
43701;BME280;58809;47.984;7.964;2023-08-24T08:12:24;97232.00;;;27.00;61.81
43701;BME280;58809;47.984;7.964;2023-08-24T08:15:26;97228.44;;;26.75;63.12
43701;BME280;58809;47.984;7.964;2023-08-24T08:18:27;97227.50;;;26.90;62.97
43701;BME280;58809;47.984;7.964;2023-08-24T08:21:29;97230.25;;;26.85;62.81
43701;BME280;58809;47.984;7.964;2023-08-24T08:24:31;97231.78;;;26.96;62.94
43701;BME280;58809;47.984;7.964;2023-08-24T08:27:33;97220.38;;;26.94;62.48
43701;BME280;58809;47.984;7.964;2023-08-24T08:30:34;97218.28;;;26.57;62.85
43701;BME280;58809;47.984;7.964;2023-08-24T08:33:36;97212.56;;;26.58;62.80
43701;BME280;58809;47.984;7.964;2023-08-24T08:36:38;97206.09;;;26.83;62.55
43701;BME280;58809;47.984;7.964;2023-08-24T08:39:39;97205.69;;;27.00;63.23
43701;BME280;58809;47.984;7.964;2023-08-24T08:42:41;97206.78;;;26.99;63.02
43701;BME280;58809;47.984;7.964;2023-08-24T08:45:43;97207.09;;;27.22;62.06
43701;BME280;58809;47.984;7.964;2023-08-24T08:48:45;97209.13;;;27.35;62.59
43701;BME280;58809;47.984;7.964;2023-08-24T08:51:48;97204.94;;;27.67;60.22
43701;BME280;58809;47.984;7.964;2023-08-24T08:54:50;97210.97;;;27.83;60.46
43701;BME280;58809;47.984;7.964;2023-08-24T08:57:53;97204.66;;;27.88;59.79
43701;BME280;58809;47.984;7.964;2023-08-24T09:00:59;97202.13;;;27.96;59.13
43701;BME280;58809;47.984;7.964;2023-08-24T09:04:06;97200.47;;;27.76;59.06
43701;BME280;58809;47.984;7.964;2023-08-24T09:07:08;97202.53;;;28.22;58.71
43701;BME280;58809;47.984;7.964;2023-08-24T09:10:13;97199.19;;;28.45;57.74
43701;BME280;58809;47.984;7.964;2023-08-24T09:13:14;97186.56;;;28.35;57.32
43701;BME280;58809;47.984;7.964;2023-08-24T09:16:16;97181.72;;;28.32;57.57
43701;BME280;58809;47.984;7.964;2023-08-24T09:19:27;97180.19;;;28.26;57.39
43701;BME280;58809;47.984;7.964;2023-08-24T09:22:34;97183.41;;;28.28;57.35
43701;BME280;58809;47.984;7.964;2023-08-24T09:25:45;97175.59;;;28.59;56.85
43701;BME280;58809;47.984;7.964;2023-08-24T09:28:47;97164.69;;;29.20;56.08
43701;BME280;58809;47.984;7.964;2023-08-24T09:31:50;97175.97;;;29.82;54.79
43701;BME280;58809;47.984;7.964;2023-08-24T09:34:52;97170.34;;;29.51;54.54
43701;BME280;58809;47.984;7.964;2023-08-24T09:37:54;97157.50;;;30.02;54.94
43701;BME280;58809;47.984;7.964;2023-08-24T09:40:56;97156.09;;;30.04;54.37
43701;BME280;58809;47.984;7.964;2023-08-24T09:44:03;97152.97;;;29.61;54.29
43701;BME280;58809;47.984;7.964;2023-08-24T09:47:11;97139.44;;;29.42;54.40
43701;BME280;58809;47.984;7.964;2023-08-24T09:50:13;97135.66;;;29.79;53.96
43701;BME280;58809;47.984;7.964;2023-08-24T09:53:19;97130.78;;;29.90;53.49
43701;BME280;58809;47.984;7.964;2023-08-24T09:56:23;97113.66;;;29.98;53.76
43701;BME280;58809;47.984;7.964;2023-08-24T09:59:27;97096.63;;;30.15;53.80
43701;BME280;58809;47.984;7.964;2023-08-24T10:02:32;97100.91;;;30.07;53.10
43701;BME280;58809;47.984;7.964;2023-08-24T10:05:37;97099.22;;;29.75;53.24
43701;BME280;58809;47.984;7.964;2023-08-24T10:08:56;97091.94;;;29.70;53.30
43701;BME280;58809;47.984;7.964;2023-08-24T10:12:02;97083.94;;;29.88;53.63
43701;BME280;58809;47.984;7.964;2023-08-24T10:15:05;97084.50;;;30.52;53.40
43701;BME280;58809;47.984;7.964;2023-08-24T10:18:09;97081.28;;;30.90;51.83
43701;BME280;58809;47.984;7.964;2023-08-24T10:21:11;97083.56;;;30.57;52.27
43701;BME280;58809;47.984;7.964;2023-08-24T10:24:14;97065.16;;;30.40;51.96
43701;BME280;58809;47.984;7.964;2023-08-24T10:27:17;97049.84;;;30.30;51.80
43701;BME280;58809;47.984;7.964;2023-08-24T10:30:19;97053.84;;;30.56;51.57
43701;BME280;58809;47.984;7.964;2023-08-24T10:33:22;97060.13;;;30.96;51.43
43701;BME280;58809;47.984;7.964;2023-08-24T10:36:24;97062.41;;;31.12;51.13
43701;BME280;58809;47.984;7.964;2023-08-24T10:39:27;97060.00;;;31.19;51.21
43701;BME280;58809;47.984;7.964;2023-08-24T10:42:43;97051.00;;;31.36;50.66
43701;BME280;58809;47.984;7.964;2023-08-24T10:46:02;97054.38;;;31.24;50.82
43701;BME280;58809;47.984;7.964;2023-08-24T10:49:05;97055.09;;;31.56;50.70
43701;BME280;58809;47.984;7.964;2023-08-24T10:52:32;97056.22;;;31.81;50.35
43701;BME280;58809;47.984;7.964;2023-08-24T10:55:37;97044.13;;;31.47;50.76
43701;BME280;58809;47.984;7.964;2023-08-24T10:58:39;97046.06;;;31.38;50.67
43701;BME280;58809;47.984;7.964;2023-08-24T11:01:42;97039.13;;;31.32;51.02
43701;BME280;58809;47.984;7.964;2023-08-24T11:05:06;97038.47;;;31.26;51.40
43701;BME280;58809;47.984;7.964;2023-08-24T11:08:08;97042.38;;;31.69;50.86
43701;BME280;58809;47.984;7.964;2023-08-24T11:11:28;97034.56;;;32.40;50.05
43701;BME280;58809;47.984;7.964;2023-08-24T11:14:30;97028.88;;;32.46;47.37
43701;BME280;58809;47.984;7.964;2023-08-24T11:17:32;97024.00;;;32.51;48.23
43701;BME280;58809;47.984;7.964;2023-08-24T11:20:34;97010.25;;;32.77;47.53
43701;BME280;58809;47.984;7.964;2023-08-24T11:23:37;97018.69;;;32.64;47.92
43701;BME280;58809;47.984;7.964;2023-08-24T11:26:47;97025.03;;;32.38;48.12
43701;BME280;58809;47.984;7.964;2023-08-24T11:30:00;97021.72;;;32.71;47.51
43701;BME280;58809;47.984;7.964;2023-08-24T11:33:02;97014.53;;;33.17;47.65
43701;BME280;58809;47.984;7.964;2023-08-24T11:36:05;97014.06;;;33.78;45.56
43701;BME280;58809;47.984;7.964;2023-08-24T11:39:17;97008.09;;;34.09;45.26
43701;BME280;58809;47.984;7.964;2023-08-24T11:42:21;97006.25;;;34.84;45.03
43701;BME280;58809;47.984;7.964;2023-08-24T11:45:23;97004.34;;;34.84;44.25
43701;BME280;58809;47.984;7.964;2023-08-24T11:48:25;97012.19;;;34.61;44.13
43701;BME280;58809;47.984;7.964;2023-08-24T11:51:30;97008.16;;;35.33;43.46
43701;BME280;58809;47.984;7.964;2023-08-24T11:54:44;97001.03;;;37.86;40.02
43701;BME280;58809;47.984;7.964;2023-08-24T11:57:46;96999.97;;;39.71;37.62
43701;BME280;58809;47.984;7.964;2023-08-24T12:00:47;96987.44;;;42.53;34.62
43701;BME280;58809;47.984;7.964;2023-08-24T12:03:49;96987.94;;;44.91;31.43
43701;BME280;58809;47.984;7.964;2023-08-24T12:06:51;96983.88;;;45.99;30.79
43701;BME280;58809;47.984;7.964;2023-08-24T12:09:52;96975.63;;;44.36;31.15
43701;BME280;58809;47.984;7.964;2023-08-24T12:13:05;96969.63;;;43.71;31.81
43701;BME280;58809;47.984;7.964;2023-08-24T12:16:07;96967.44;;;41.71;33.86
43701;BME280;58809;47.984;7.964;2023-08-24T12:19:08;96957.88;;;39.58;36.38
43701;BME280;58809;47.984;7.964;2023-08-24T12:22:19;96956.78;;;38.52;38.12
43701;BME280;58809;47.984;7.964;2023-08-24T12:25:24;96954.19;;;40.21;37.04
43701;BME280;58809;47.984;7.964;2023-08-24T12:28:29;96942.63;;;43.64;32.10
43701;BME280;58809;47.984;7.964;2023-08-24T12:31:30;96946.16;;;45.18;30.57
43701;BME280;58809;47.984;7.964;2023-08-24T12:34:32;96945.69;;;46.16;29.08
43701;BME280;58809;47.984;7.964;2023-08-24T12:37:35;96939.50;;;46.52;28.84
43701;BME280;58809;47.984;7.964;2023-08-24T12:40:37;96935.56;;;45.67;28.86
43701;BME280;58809;47.984;7.964;2023-08-24T12:43:38;96920.63;;;46.32;29.35
43701;BME280;58809;47.984;7.964;2023-08-24T12:46:42;96915.22;;;46.45;28.05
43701;BME280;58809;47.984;7.964;2023-08-24T12:49:47;96908.13;;;47.44;28.38
43701;BME280;58809;47.984;7.964;2023-08-24T12:52:48;96908.16;;;48.92;26.37
43701;BME280;58809;47.984;7.964;2023-08-24T12:55:50;96899.09;;;49.56;26.05
43701;BME280;58809;47.984;7.964;2023-08-24T12:58:52;96895.28;;;49.07;25.84
43701;BME280;58809;47.984;7.964;2023-08-24T13:01:53;96891.06;;;49.16;26.43
43701;BME280;58809;47.984;7.964;2023-08-24T13:04:55;96884.59;;;49.44;26.45
43701;BME280;58809;47.984;7.964;2023-08-24T13:07:57;96872.31;;;48.96;26.22
43701;BME280;58809;47.984;7.964;2023-08-24T13:10:59;96873.88;;;49.39;26.17
43701;BME280;58809;47.984;7.964;2023-08-24T13:14:00;96861.50;;;50.83;25.73
43701;BME280;58809;47.984;7.964;2023-08-24T13:17:02;96850.91;;;51.82;24.64
43701;BME280;58809;47.984;7.964;2023-08-24T13:20:05;96851.66;;;51.10;24.17
43701;BME280;58809;47.984;7.964;2023-08-24T13:23:08;96847.56;;;51.02;24.67
43701;BME280;58809;47.984;7.964;2023-08-24T13:26:19;96835.06;;;51.44;24.90
43701;BME280;58809;47.984;7.964;2023-08-24T13:29:21;96825.31;;;51.67;24.02
43701;BME280;58809;47.984;7.964;2023-08-24T13:32:23;96819.19;;;52.46;23.12
43701;BME280;58809;47.984;7.964;2023-08-24T13:35:24;96807.41;;;52.66;23.18
43701;BME280;58809;47.984;7.964;2023-08-24T13:38:26;96796.13;;;52.10;23.48
43701;BME280;58809;47.984;7.964;2023-08-24T13:41:27;96785.03;;;51.57;24.05
43701;BME280;58809;47.984;7.964;2023-08-24T13:44:29;96786.59;;;53.15;23.04
43701;BME280;58809;47.984;7.964;2023-08-24T13:47:31;96775.75;;;52.15;23.52
43701;BME280;58809;47.984;7.964;2023-08-24T13:50:33;96767.59;;;52.17;23.82
43701;BME280;58809;47.984;7.964;2023-08-24T13:53:34;96762.72;;;52.18;22.79
43701;BME280;58809;47.984;7.964;2023-08-24T13:56:36;96759.28;;;51.46;23.50
43701;BME280;58809;47.984;7.964;2023-08-24T13:59:39;96764.69;;;50.90;23.94
43701;BME280;58809;47.984;7.964;2023-08-24T14:02:40;96771.91;;;50.47;23.98
43701;BME280;58809;47.984;7.964;2023-08-24T14:05:42;96768.97;;;49.68;23.92
43701;BME280;58809;47.984;7.964;2023-08-24T14:08:45;96762.22;;;48.88;24.75
43701;BME280;58809;47.984;7.964;2023-08-24T14:11:46;96765.91;;;49.88;24.44
43701;BME280;58809;47.984;7.964;2023-08-24T14:14:49;96753.75;;;50.92;23.66
43701;BME280;58809;47.984;7.964;2023-08-24T14:17:50;96759.78;;;50.59;23.86
43701;BME280;58809;47.984;7.964;2023-08-24T14:20:52;96754.47;;;50.39;24.07
43701;BME280;58809;47.984;7.964;2023-08-24T14:23:53;96747.38;;;51.01;22.92
43701;BME280;58809;47.984;7.964;2023-08-24T14:26:55;96745.66;;;51.44;23.98
43701;BME280;58809;47.984;7.964;2023-08-24T14:29:57;96740.22;;;51.09;23.76
43701;BME280;58809;47.984;7.964;2023-08-24T14:32:58;96744.78;;;51.84;22.12
43701;BME280;58809;47.984;7.964;2023-08-24T14:36:00;96750.97;;;52.38;21.74
43701;BME280;58809;47.984;7.964;2023-08-24T14:39:01;96740.13;;;51.81;20.94
43701;BME280;58809;47.984;7.964;2023-08-24T14:42:03;96753.31;;;51.44;20.87
43701;BME280;58809;47.984;7.964;2023-08-24T14:45:06;96751.06;;;50.22;21.89
43701;BME280;58809;47.984;7.964;2023-08-24T14:48:07;96745.59;;;50.06;22.26
43701;BME280;58809;47.984;7.964;2023-08-24T14:51:09;96748.75;;;49.35;22.36
43701;BME280;58809;47.984;7.964;2023-08-24T14:54:11;96745.66;;;48.65;21.87
43701;BME280;58809;47.984;7.964;2023-08-24T14:57:15;96748.34;;;48.68;22.22
43701;BME280;58809;47.984;7.964;2023-08-24T15:00:17;96736.84;;;47.75;22.33
43701;BME280;58809;47.984;7.964;2023-08-24T15:03:19;96751.91;;;47.81;22.15
43701;BME280;58809;47.984;7.964;2023-08-24T15:06:22;96757.56;;;47.12;23.06
43701;BME280;58809;47.984;7.964;2023-08-24T15:09:23;96756.72;;;46.95;22.94
43701;BME280;58809;47.984;7.964;2023-08-24T15:12:25;96764.09;;;44.69;25.05
43701;BME280;58809;47.984;7.964;2023-08-24T15:15:26;96755.44;;;43.31;26.40
43701;BME280;58809;47.984;7.964;2023-08-24T15:18:28;96755.41;;;42.46;27.78
43701;BME280;58809;47.984;7.964;2023-08-24T15:21:29;96759.13;;;41.64;28.71
43701;BME280;58809;47.984;7.964;2023-08-24T15:24:31;96763.94;;;40.51;30.16
43701;BME280;58809;47.984;7.964;2023-08-24T15:27:33;96767.88;;;39.87;31.40
43701;BME280;58809;47.984;7.964;2023-08-24T15:30:34;96773.84;;;39.07;32.24
43701;BME280;58809;47.984;7.964;2023-08-24T15:33:36;96775.09;;;38.19;33.56
43701;BME280;58809;47.984;7.964;2023-08-24T15:36:38;96772.19;;;37.62;35.34
43701;BME280;58809;47.984;7.964;2023-08-24T15:39:40;96783.44;;;37.07;36.60
43701;BME280;58809;47.984;7.964;2023-08-24T15:42:41;96790.53;;;37.08;37.54
43701;BME280;58809;47.984;7.964;2023-08-24T15:45:43;96797.16;;;36.84;37.74
43701;BME280;58809;47.984;7.964;2023-08-24T15:48:44;96790.41;;;36.26;38.34
43701;BME280;58809;47.984;7.964;2023-08-24T15:51:46;96786.94;;;36.13;38.46
43701;BME280;58809;47.984;7.964;2023-08-24T15:54:47;96793.66;;;35.96;39.30
43701;BME280;58809;47.984;7.964;2023-08-24T15:57:49;96806.44;;;35.73;39.97
43701;BME280;58809;47.984;7.964;2023-08-24T16:00:52;96805.81;;;35.63;40.94
43701;BME280;58809;47.984;7.964;2023-08-24T16:03:53;96802.22;;;35.31;41.64
43701;BME280;58809;47.984;7.964;2023-08-24T16:06:55;96787.25;;;34.72;43.27
43701;BME280;58809;47.984;7.964;2023-08-24T16:09:56;96789.38;;;34.13;45.40
43701;BME280;58809;47.984;7.964;2023-08-24T16:12:58;96782.50;;;33.58;46.21